Louisville, NE (68037)

1:13 PM CDT on September 27, 2016 (GMT -0500)
Prairie View Estates | | Change Station

Elev 1027 ft 41.04 °N, 96.09 °W | Updated 3 minutes ago

Clear
Clear
73.8 °F
Feels Like 77 °F
N
2.0
Wind Variable Wind from NW
Gusts 8.0 mph

Today
High -- | Low -- °F
--% Chance of Precip.
Yesterday
High -- | Low -- °F
Precip. -- in
Pressure 29.98 in
Visibility 10.0 miles
Clouds Clear
Heat Index 77 °F
Dew Point 46 °F
Humidity 37%
Rainfall 0.00 in
Snow Depth Not available.
7:17 AM 7:12 PM
Waning Crescent, 10% visible
METAR KPMV 271755Z AUTO 32005KT 10SM CLR 23/00 A2998 RMK AO2 T02321001 10233 20097
Pressure 29.98 in
Visibility 10.0 miles
Clouds Clear
Heat Index 77 °F
Dew Point 46 °F
Humidity 37%
Rainfall 0.00 in
Snow Depth Not available.
7:17 AM 7:12 PM
Waning Crescent, 10% visible
METAR KPMV 271755Z AUTO 32005KT 10SM CLR 23/00 A2998 RMK AO2 T02321001 10233 20097

10-Day Weather Forecast

Almanac

Astronomy

Sep. 27, 2016 Rise Set
Actual Time
Civil Twilight
Nautical Twilight
Astronomical Twilight
Moon
Length of Visible Light
Length of Day
Tomorrow will be .
, % of the Moon is Illuminated

Today's Extremes

State Highs State Lows

Community

WunderPhotos

Upload Photos

1,942,143 photos uploaded!

WunderBlog® & News

Nearby

Air Quality

  Air Quality AQ Index Pollutant
Not available.

Snow Depth

Station Depth Elevation

Earthquake Activity

City Distance Mag. Time & Date
Minimum magnitude displayed is 2.5.

Coastal Water Temperatures

Place Temperature

Stations

Nearby Weather Stations

Station Location Temp. Windchill Dew Point Humidity Wind Precip. Elev Updated Type
                   

Watches & Warnings

There are currently no watches in effect.